High Point, NC

4:58 AM EST on February 12, 2016 (GMT -0500)
Winter Garden | | Change Station
CLOSE
Current Station
Personal Weather Station
Location: High Point, NC
Elevation: 850 ft
Nearby Weather Stations

Elev 850 ft 36.01 °N, 80.06 °W | Updated 1 second ago

Overcast
Overcast
24.7 °F
Feels Like 25 °F
N
0.0
Wind Variable Wind from North
Gusts 2.0 mph

Today
High -- | Low -- °F
--% Chance of Precip.
Yesterday
High -- | Low -- °F
Precip. -- in
Pressure 30.25 in
Visibility 10.0 miles
Clouds Overcast 8000 ft
Windchill 25 °F
Dew Point 7 °F
Humidity 47%
Rainfall 0.00 in
Snow Depth Not available.
7:11 AM 5:58 PM
Waxing Crescent, 19% visible
METAR KGSO 120954Z 07006KT 10SM OVC080 M04/M15 A3022 RMK AO2 SLP242 T10441150
Pressure 30.25 in
Visibility 10.0 miles
Clouds Overcast 8000 ft
Windchill 25 °F
Dew Point 7 °F
Humidity 47%
Rainfall 0.00 in
Snow Depth Not available.
7:11 AM 5:58 PM
Waxing Crescent, 19% visible
METAR KGSO 120954Z 07006KT 10SM OVC080 M04/M15 A3022 RMK AO2 SLP242 T10441150

10-Day Weather Forecast

Almanac

Astronomy

Feb. 12, 2016 Rise Set
Actual Time
Civil Twilight
Nautical Twilight
Astronomical Twilight
Moon
Length of Visible Light
Length of Day
Tomorrow will be .
, % of the Moon is Illuminated

Today's Extremes

State Highs State Lows

Community

WunderPhotos

Upload Photos

1,892,286 photos uploaded!

WunderBlog® & News

Nearby

Air Quality

  Air Quality AQ Index Pollutant
Not available.

Snow Depth

Station Depth Elevation

Earthquake Activity

City Distance Mag. Time & Date
Minimum magnitude displayed is 2.5.

Coastal Water Temperatures

Place Temperature

Stations

Nearby Weather Stations

Station Location Temp. Windchill Dew Point Humidity Wind Precip. Elev Updated Type
                   

Watches & Warnings

There are currently no watches in effect.